createdAt,value
2023-10-16T00:06:50.467Z,68.51
2023-10-16T00:21:53.694Z,67.54
2023-10-16T00:36:55.778Z,66.37
2023-10-16T00:51:57.843Z,66.22
2023-10-16T01:07:02.187Z,66.44
2023-10-16T01:22:04.831Z,66.90
2023-10-16T01:37:10.209Z,68.35
2023-10-16T01:52:15.524Z,68.97
2023-10-16T02:07:17.346Z,69.30
2023-10-16T02:22:19.614Z,65.74
2023-10-16T02:37:22.818Z,64.20
2023-10-16T02:52:26.448Z,63.54
2023-10-16T03:07:28.546Z,61.71
2023-10-16T03:22:30.265Z,62.31
2023-10-16T03:37:31.963Z,62.56
2023-10-16T03:52:34.491Z,62.33
2023-10-16T04:07:38.897Z,62.32
2023-10-16T04:22:50.499Z,61.29
2023-10-16T04:38:18.198Z,62.01
2023-10-16T04:53:28.941Z,61.63
2023-10-16T05:08:40.659Z,61.14
2023-10-16T05:24:01.044Z,61.33
2023-10-16T05:39:21.500Z,60.78
2023-10-16T05:54:42.092Z,60.53
2023-10-16T06:10:02.678Z,59.76
2023-10-16T06:25:11.355Z,57.66
2023-10-16T06:40:19.957Z,55.59
2023-10-16T06:55:25.028Z,54.45
2023-10-16T07:10:27.518Z,52.73
2023-10-16T07:25:48.858Z,48.29
2023-10-16T07:41:01.116Z,43.74
2023-10-16T07:56:03.766Z,41.82
2023-10-16T08:11:15.318Z,40.30
2023-10-16T08:26:21.587Z,37.80
2023-10-16T08:41:33.830Z,37.24
2023-10-16T08:56:39.245Z,34.97
2023-10-16T09:11:44.958Z,34.87
2023-10-16T09:26:47.682Z,35.54
2023-10-16T09:41:50.868Z,33.57
2023-10-16T09:56:59.775Z,38.90
2023-10-16T10:12:16.191Z,33.58
2023-10-16T10:27:18.820Z,33.91
2023-10-16T10:42:38.727Z,33.42
2023-10-16T10:57:42.387Z,33.81
2023-10-16T11:12:45.428Z,34.04
2023-10-16T11:27:50.244Z,34.08
2023-10-16T11:42:53.511Z,34.88
2023-10-16T11:57:58.120Z,33.73
2023-10-16T12:13:02.318Z,34.82
2023-10-16T12:28:09.144Z,33.61
2023-10-16T12:43:11.042Z,33.13
2023-10-16T12:58:12.888Z,32.23
2023-10-16T13:13:16.408Z,32.66
2023-10-16T13:28:19.778Z,31.48
2023-10-16T13:43:22.361Z,32.31
2023-10-16T13:58:24.076Z,27.87
2023-10-16T14:13:29.679Z,27.53
2023-10-16T14:28:41.964Z,27.00
2023-10-16T14:43:46.666Z,26.94
2023-10-16T15:13:55.803Z,27.04
2023-10-16T15:28:57.701Z,33.33
2023-10-16T15:44:00.711Z,34.66
2023-10-16T15:59:02.679Z,34.74
2023-10-16T16:14:04.698Z,37.32
2023-10-16T16:29:06.989Z,37.41
2023-10-16T16:44:09.394Z,37.95
2023-10-16T16:59:14.283Z,37.51
2023-10-16T17:14:16.952Z,37.33
2023-10-16T17:29:21.182Z,37.42
2023-10-16T17:44:23.103Z,37.30
2023-10-16T17:59:25.046Z,37.84
2023-10-16T18:14:27.614Z,37.80
2023-10-16T18:29:31.249Z,38.20
2023-10-16T18:44:33.084Z,38.36
2023-10-16T18:59:35.161Z,39.90
2023-10-16T19:14:37.070Z,45.14
2023-10-16T19:29:39.011Z,41.46
2023-10-16T19:44:40.876Z,42.02
2023-10-16T19:59:42.739Z,41.57
2023-10-16T20:14:48.538Z,42.18
2023-10-16T20:29:51.686Z,43.37
2023-10-16T20:44:53.584Z,43.39
2023-10-16T20:59:55.481Z,44.17
2023-10-16T21:14:58.224Z,44.17
2023-10-16T21:30:00.140Z,45.71
2023-10-16T21:45:08.247Z,44.43
2023-10-16T22:00:29.191Z,45.17
2023-10-16T22:15:31.166Z,46.05
2023-10-16T22:30:34.298Z,46.46
2023-10-16T22:45:36.745Z,46.04
2023-10-16T23:00:39.585Z,47.43
2023-10-16T23:15:47.760Z,46.24
2023-10-16T23:30:49.683Z,48.49
2023-10-16T23:45:52.745Z,48.98
